Time;durP1;ratioP1;P1;durP2;ratioP2;P2;SDS_P1;SDS_P2;PMS_P1;PMS_P2;Temp;Humidity;BMP_temperature;BMP_pressure;BME280_temperature;BME280_humidity;BME280_pressure;Samples;Min_cycle;Max_cycle;Signal;HPM_P1;HPM_P2
2023/10/29 00:00:43;;;;;;;7.73;3.43;;;10.90;99.90;;;;;;5022671;28;20453;-69
2023/10/29 00:03:12;;;;;;;6.13;3.80;;;10.90;99.90;;;;;;5021739;28;20444;-68
2023/10/29 00:05:40;;;;;;;5.60;3.90;;;10.90;99.90;;;;;;5022369;28;20910;-69
2023/10/29 00:08:09;;;;;;;3.63;3.30;;;10.90;99.90;;;;;;5022006;28;20473;-69
2023/10/29 00:10:36;;;;;;;5.93;3.30;;;10.90;99.90;;;;;;5022493;28;20930;-69
2023/10/29 00:13:07;;;;;;;5.27;2.83;;;10.80;99.90;;;;;;5022899;28;20906;-70
2023/10/29 00:15:35;;;;;;;4.13;3.53;;;10.80;99.90;;;;;;5023402;28;20461;-69
2023/10/29 00:18:02;;;;;;;6.70;3.70;;;10.80;99.90;;;;;;5022221;28;20489;-69
2023/10/29 00:20:44;;;;;;;3.90;3.40;;;10.80;99.90;;;;;;5022135;28;20432;-69
2023/10/29 00:23:13;;;;;;;4.93;3.20;;;10.80;99.90;;;;;;5022115;28;20453;-67
2023/10/29 00:25:55;;;;;;;3.43;2.87;;;10.70;99.90;;;;;;5023201;28;20429;-69
2023/10/29 00:28:23;;;;;;;5.83;3.43;;;10.70;99.90;;;;;;5022461;28;20519;-68
2023/10/29 00:30:58;;;;;;;6.17;3.20;;;10.70;99.90;;;;;;5021624;28;20429;-69
2023/10/29 00:33:27;;;;;;;4.00;3.00;;;10.70;99.90;;;;;;5022792;28;20468;-68
2023/10/29 00:35:57;;;;;;;5.27;3.10;;;10.70;99.90;;;;;;5021337;28;20851;-67
2023/10/29 00:38:38;;;;;;;5.93;3.40;;;10.70;99.90;;;;;;5021572;28;20539;-70
2023/10/29 00:41:05;;;;;;;5.97;3.40;;;10.70;99.90;;;;;;5021059;28;20464;-68
2023/10/29 00:46:17;;;;;;;3.97;3.30;;;10.80;99.90;;;;;;4959868;29;20444;-68
2023/10/29 00:48:48;;;;;;;7.10;3.50;;;10.80;99.90;;;;;;4959422;29;20541;-68
2023/10/29 00:51:15;;;;;;;4.87;3.60;;;10.80;99.90;;;;;;4958062;29;20444;-69
2023/10/29 00:53:45;;;;;;;7.33;3.83;;;10.70;99.90;;;;;;4958239;29;20444;-68
2023/10/29 00:56:19;;;;;;;5.20;2.80;;;10.70;99.90;;;;;;4957077;29;20471;-68
2023/10/29 00:58:48;;;;;;;6.77;3.50;;;10.70;99.90;;;;;;4957054;29;20936;-67
2023/10/29 01:01:15;;;;;;;6.70;3.10;;;10.70;99.90;;;;;;4941106;29;20535;-68
2023/10/29 01:03:42;;;;;;;9.30;3.47;;;10.70;99.90;;;;;;4956943;29;20424;-69
2023/10/29 01:06:11;;;;;;;5.97;3.60;;;10.70;99.90;;;;;;4957051;29;20439;-67
2023/10/29 01:08:39;;;;;;;5.23;2.90;;;10.70;99.90;;;;;;4956878;28;20479;-69
2023/10/29 01:11:07;;;;;;;6.40;3.53;;;10.60;99.90;;;;;;4956894;29;20448;-68
2023/10/29 01:13:34;;;;;;;4.27;2.47;;;10.60;99.90;;;;;;4956878;29;20491;-69
2023/10/29 01:16:04;;;;;;;4.83;2.67;;;10.60;99.90;;;;;;4956177;29;20452;-69
2023/10/29 01:18:31;;;;;;;3.87;2.43;;;10.60;99.90;;;;;;5015497;28;21040;-68
2023/10/29 01:21:21;;;;;;;4.93;2.70;;;10.50;99.90;;;;;;5016256;28;20472;-67
2023/10/29 01:23:48;;;;;;;2.90;2.07;;;10.50;99.90;;;;;;5016244;28;20455;-67
2023/10/29 01:26:17;;;;;;;3.77;2.10;;;10.50;99.90;;;;;;4999254;28;20536;-67
2023/10/29 01:28:44;;;;;;;5.23;3.10;;;10.50;99.90;;;;;;5017936;28;20476;-68
2023/10/29 01:31:12;;;;;;;3.33;2.13;;;10.50;99.90;;;;;;5017917;28;20487;-66
2023/10/29 01:33:40;;;;;;;4.63;2.90;;;10.50;99.90;;;;;;5016171;28;20492;-69
2023/10/29 01:36:08;;;;;;;7.27;2.40;;;10.50;99.90;;;;;;5015514;28;20457;-68
2023/10/29 01:38:35;;;;;;;3.33;2.87;;;10.50;99.90;;;;;;5015818;28;20517;-68
2023/10/29 01:41:02;;;;;;;6.37;3.97;;;10.60;99.90;;;;;;5015836;28;20460;-67
2023/10/29 01:43:34;;;;;;;6.70;3.20;;;10.50;99.90;;;;;;5016502;28;20434;-69
2023/10/29 01:46:01;;;;;;;5.30;2.87;;;10.50;99.90;;;;;;5016440;28;20925;-67
2023/10/29 01:48:29;;;;;;;8.30;4.13;;;10.50;99.90;;;;;;5015259;28;20488;-68
2023/10/29 01:51:02;;;;;;;9.70;4.20;;;10.50;99.90;;;;;;5015994;28;20426;-67
2023/10/29 01:53:30;;;;;;;7.30;3.03;;;10.50;99.90;;;;;;4997544;28;20449;-68
2023/10/29 01:55:58;;;;;;;6.20;3.40;;;10.50;99.90;;;;;;5015177;28;20461;-67
2023/10/29 01:58:26;;;;;;;5.27;3.67;;;10.50;99.90;;;;;;5015747;28;20516;-69
2023/10/29 02:00:56;;;;;;;4.30;2.63;;;10.50;99.90;;;;;;4997894;28;20829;-68
2023/10/29 02:03:23;;;;;;;5.27;3.13;;;10.50;99.90;;;;;;5015033;28;20902;-67
2023/10/29 02:05:52;;;;;;;6.20;3.40;;;10.50;99.90;;;;;;5015084;28;20422;-69
2023/10/29 02:08:42;;;;;;;5.03;2.70;;;10.50;99.90;;;;;;5014592;28;20473;-69
2023/10/29 02:11:10;;;;;;;5.27;3.30;;;10.50;99.90;;;;;;5014721;28;20429;-68
2023/10/29 02:13:37;;;;;;;7.83;3.50;;;10.50;99.90;;;;;;5015097;28;20434;-69
2023/10/29 02:16:08;;;;;;;13.27;3.27;;;10.50;99.90;;;;;;5014460;28;20469;-69
2023/10/29 02:18:37;;;;;;;7.83;2.97;;;10.60;99.90;;;;;;5015145;28;20510;-69
2023/10/29 02:21:05;;;;;;;9.73;2.97;;;10.50;99.90;;;;;;5015692;28;20480;-67
2023/10/29 02:23:38;;;;;;;3.80;2.20;;;10.50;99.90;;;;;;5016139;28;20480;-68
2023/10/29 02:26:07;;;;;;;5.93;3.00;;;10.50;99.90;;;;;;4997267;28;20441;-68
2023/10/29 02:28:35;;;;;;;4.23;2.53;;;10.60;99.90;;;;;;4996605;28;20468;-70
2023/10/29 02:31:15;;;;;;;4.57;2.47;;;10.60;99.90;;;;;;5014612;28;20457;-68
2023/10/29 02:33:46;;;;;;;4.67;3.00;;;10.60;99.90;;;;;;5014260;28;20464;-69
2023/10/29 02:36:13;;;;;;;6.50;2.90;;;10.60;99.90;;;;;;5015130;28;20425;-70
2023/10/29 02:38:42;;;;;;;4.27;2.50;;;10.60;99.90;;;;;;5015579;28;20571;-68
2023/10/29 02:41:17;;;;;;;5.23;2.37;;;10.70;99.90;;;;;;5017020;28;20425;-67
2023/10/29 02:43:44;;;;;;;6.57;3.60;;;10.70;99.90;;;;;;5018528;28;20425;-67
2023/10/29 02:46:11;;;;;;;5.73;2.80;;;10.70;99.90;;;;;;5018510;28;20429;-67
2023/10/29 02:48:47;;;;;;;4.53;2.70;;;10.80;99.90;;;;;;5016503;28;20467;-68
2023/10/29 02:51:15;;;;;;;4.47;3.47;;;10.80;99.90;;;;;;4995573;28;20422;-68
2023/10/29 02:53:43;;;;;;;7.40;3.90;;;10.70;99.90;;;;;;4996237;28;20426;-67
2023/10/29 02:56:24;;;;;;;6.57;4.97;;;10.80;99.90;;;;;;4999716;28;20825;-67
2023/10/29 02:58:53;;;;;;;5.57;3.50;;;10.80;99.90;;;;;;4999063;28;20548;-69
2023/10/29 03:01:20;;;;;;;4.83;3.33;;;10.80;99.90;;;;;;5015183;28;20449;-67
2023/10/29 03:03:49;;;;;;;7.87;3.40;;;10.80;99.90;;;;;;5018818;28;20503;-68
2023/10/29 03:06:17;;;;;;;8.33;3.90;;;10.80;99.90;;;;;;5018255;28;20425;-69
2023/10/29 03:08:55;;;;;;;6.90;4.00;;;10.80;99.90;;;;;;5019021;28;20522;-68
2023/10/29 03:11:33;;;;;;;3.60;2.90;;;10.80;99.90;;;;;;5019145;28;20519;-68
2023/10/29 03:14:03;;;;;;;3.93;2.57;;;10.80;99.90;;;;;;5020069;28;20918;-68
2023/10/29 03:16:31;;;;;;;3.70;2.90;;;10.70;99.90;;;;;;5019916;28;20786;-67
2023/10/29 03:19:01;;;;;;;6.70;3.27;;;10.70;99.90;;;;;;5022402;28;20834;-67
2023/10/29 03:21:29;;;;;;;3.00;2.60;;;10.60;99.90;;;;;;5018600;28;20425;-68
2023/10/29 03:23:57;;;;;;;5.03;3.60;;;10.60;99.90;;;;;;5017944;28;20480;-67
2023/10/29 03:26:37;;;;;;;4.10;2.97;;;10.60;99.90;;;;;;5017807;28;20441;-67
2023/10/29 03:29:07;;;;;;;7.27;3.70;;;10.60;99.90;;;;;;5019758;28;20461;-68
2023/10/29 03:31:34;;;;;;;3.47;3.13;;;10.60;99.90;;;;;;5019799;28;20425;-69
2023/10/29 03:34:01;;;;;;;4.83;3.23;;;10.60;99.90;;;;;;5019491;28;20425;-68
2023/10/29 03:36:30;;;;;;;7.47;3.93;;;10.60;99.90;;;;;;5018927;28;20421;-69
2023/10/29 03:38:58;;;;;;;8.90;3.17;;;10.60;99.90;;;;;;5018238;28;20535;-69
2023/10/29 03:41:26;;;;;;;5.93;3.07;;;10.60;99.90;;;;;;5001377;28;20845;-69
2023/10/29 03:44:13;;;;;;;3.60;2.70;;;10.60;99.90;;;;;;5019351;28;20449;-68
2023/10/29 03:46:41;;;;;;;8.30;3.23;;;10.60;99.90;;;;;;5019701;28;20472;-69
2023/10/29 03:49:15;;;;;;;4.27;2.40;;;10.60;99.90;;;;;;5021816;28;20461;-68
2023/10/29 03:51:51;;;;;;;8.30;3.90;;;10.70;99.90;;;;;;5020581;28;20453;-69
2023/10/29 03:54:20;;;;;;;2.63;2.20;;;10.70;99.90;;;;;;5019687;28;20433;-68
2023/10/29 03:56:47;;;;;;;5.33;3.07;;;10.70;99.90;;;;;;5023666;28;20442;-69
2023/10/29 03:59:20;;;;;;;8.37;3.10;;;10.70;99.90;;;;;;5025215;28;20495;-68
2023/10/29 04:01:48;;;;;;;7.13;2.90;;;10.70;99.90;;;;;;5025451;28;20422;-68
2023/10/29 04:04:16;;;;;;;5.47;3.07;;;10.70;99.90;;;;;;5025469;28;20456;-68
2023/10/29 04:06:43;;;;;;;5.73;2.97;;;10.70;99.90;;;;;;5028817;28;20841;-69
2023/10/29 04:09:10;;;;;;;2.80;2.40;;;10.80;99.90;;;;;;5029565;28;20525;-68
2023/10/29 04:11:39;;;;;;;5.63;4.13;;;10.70;99.90;;;;;;5028362;28;20463;-68
2023/10/29 04:14:48;;;;;;;6.10;2.73;;;10.80;99.90;;;;;;5029525;28;20432;-67
2023/10/29 04:17:18;;;;;;;7.53;2.70;;;10.80;99.90;;;;;;5023547;28;20496;-68
2023/10/29 04:19:45;;;;;;;4.33;2.63;;;10.80;99.90;;;;;;5018619;28;20493;-69
2023/10/29 04:22:11;;;;;;;5.10;2.57;;;10.80;99.90;;;;;;5017339;28;20489;-68
2023/10/29 04:24:47;;;;;;;4.83;3.27;;;10.90;99.90;;;;;;5017804;28;20534;-67
2023/10/29 04:27:16;;;;;;;4.67;3.30;;;10.90;99.90;;;;;;5017604;28;20499;-67
2023/10/29 04:29:45;;;;;;;4.73;3.10;;;10.90;99.90;;;;;;5016974;28;20464;-68
2023/10/29 04:32:30;;;;;;;4.67;2.80;;;10.90;99.90;;;;;;5016378;28;20437;-68
2023/10/29 04:34:57;;;;;;;6.63;2.77;;;10.90;99.90;;;;;;5015954;28;20511;-68
2023/10/29 04:37:25;;;;;;;3.13;2.30;;;10.90;99.90;;;;;;5016584;28;20426;-68
2023/10/29 04:39:56;;;;;;;4.37;3.00;;;10.90;99.90;;;;;;5015271;28;20485;-67
2023/10/29 04:42:38;;;;;;;5.23;2.50;;;10.80;99.90;;;;;;5015846;28;20985;-67
2023/10/29 04:45:11;;;;;;;4.73;2.93;;;10.80;99.90;;;;;;5015710;28;20858;-68
2023/10/29 04:47:38;;;;;;;3.80;3.03;;;10.80;99.90;;;;;;5015776;28;20429;-69
2023/10/29 04:50:19;;;;;;;5.60;2.90;;;10.90;99.90;;;;;;5015265;28;20438;-68
2023/10/29 04:52:47;;;;;;;6.10;2.77;;;10.90;99.90;;;;;;5015779;28;20472;-69
2023/10/29 04:55:16;;;;;;;5.30;2.80;;;10.90;99.90;;;;;;5015548;28;20468;-68
2023/10/29 04:57:45;;;;;;;8.50;3.17;;;10.90;99.90;;;;;;5015428;28;20425;-69
2023/10/29 05:00:14;;;;;;;5.40;3.73;;;10.90;99.90;;;;;;5011198;28;20493;-68
2023/10/29 05:02:47;;;;;;;8.43;3.30;;;10.90;99.90;;;;;;4999700;28;20470;-68
2023/10/29 05:05:14;;;;;;;7.70;2.93;;;10.80;99.90;;;;;;4997614;28;20489;-68
2023/10/29 05:07:44;;;;;;;4.60;2.50;;;10.90;99.90;;;;;;4995900;28;20446;-68
2023/10/29 05:10:29;;;;;;;6.17;3.30;;;10.90;99.90;;;;;;4995995;28;20533;-70
2023/10/29 05:12:57;;;;;;;6.30;3.00;;;10.80;99.90;;;;;;4996908;28;20802;-67
2023/10/29 05:15:24;;;;;;;2.77;2.30;;;10.80;99.90;;;;;;4996739;28;20521;-67
2023/10/29 05:18:06;;;;;;;5.77;2.47;;;10.80;99.90;;;;;;4996856;28;20438;-68
2023/10/29 05:20:34;;;;;;;8.90;3.17;;;10.80;99.90;;;;;;4996024;28;20489;-69
2023/10/29 05:23:01;;;;;;;5.13;3.20;;;10.80;99.90;;;;;;4997781;28;20434;-68
2023/10/29 05:25:29;;;;;;;3.90;2.93;;;10.80;99.90;;;;;;4998569;28;20463;-68
2023/10/29 05:28:05;;;;;;;9.33;2.40;;;10.80;99.90;;;;;;4998549;28;20473;-67
2023/10/29 05:30:39;;;;;;;10.80;3.07;;;10.80;99.90;;;;;;4999632;28;20497;-68
2023/10/29 05:33:06;;;;;;;4.77;2.57;;;10.80;99.90;;;;;;4982745;28;20515;-67
2023/10/29 05:35:33;;;;;;;5.20;2.90;;;10.80;99.90;;;;;;5001934;28;20423;-68
2023/10/29 05:38:01;;;;;;;5.27;2.67;;;10.90;99.90;;;;;;5000082;28;20462;-67
2023/10/29 05:40:29;;;;;;;9.83;2.27;;;10.90;99.90;;;;;;4996659;28;20501;-67
2023/10/29 05:42:56;;;;;;;4.50;2.23;;;10.90;99.90;;;;;;4997370;28;20521;-67
2023/10/29 05:45:25;;;;;;;9.73;3.00;;;10.90;99.90;;;;;;4997059;28;20924;-67
2023/10/29 05:47:52;;;;;;;3.80;2.93;;;10.90;99.90;;;;;;4997743;28;20422;-68
2023/10/29 05:50:25;;;;;;;4.63;2.53;;;10.90;99.90;;;;;;5010474;28;20437;-70
2023/10/29 05:52:52;;;;;;;4.90;2.20;;;10.90;99.90;;;;;;5016568;28;20775;-69
2023/10/29 05:55:22;;;;;;;6.60;2.47;;;10.90;99.90;;;;;;5008719;28;20982;-70
2023/10/29 05:57:50;;;;;;;3.73;2.70;;;11.00;99.90;;;;;;4999169;28;20438;-70
2023/10/29 06:00:18;;;;;;;4.57;3.40;;;11.00;99.90;;;;;;5010909;28;20914;-69
2023/10/29 06:02:47;;;;;;;6.40;2.60;;;11.00;99.90;;;;;;5015915;28;20524;-66
2023/10/29 06:05:16;;;;;;;3.60;3.10;;;11.10;99.90;;;;;;5015899;28;20462;-68
2023/10/29 06:07:59;;;;;;;7.20;2.60;;;11.00;99.90;;;;;;5015288;28;20511;-67
2023/10/29 06:10:29;;;;;;;4.03;2.17;;;11.00;99.90;;;;;;5017106;28;20426;-67
2023/10/29 06:12:59;;;;;;;4.60;2.67;;;11.00;99.90;;;;;;5016323;28;20441;-67
2023/10/29 06:15:28;;;;;;;7.57;3.03;;;11.00;99.90;;;;;;5018814;28;20433;-68
2023/10/29 06:18:04;;;;;;;4.73;2.53;;;11.10;99.90;;;;;;5017432;28;20472;-67
2023/10/29 06:20:31;;;;;;;7.47;2.43;;;11.10;99.90;;;;;;5018074;28;20469;-69
2023/10/29 06:23:00;;;;;;;5.10;2.70;;;11.10;99.90;;;;;;5017769;28;20429;-68
2023/10/29 06:25:27;;;;;;;3.83;2.03;;;11.10;99.90;;;;;;5020018;28;20429;-67
2023/10/29 06:28:01;;;;;;;4.27;2.90;;;11.10;99.90;;;;;;5019580;28;20465;-68
2023/10/29 06:30:28;;;;;;;3.80;2.27;;;11.10;99.90;;;;;;5000470;28;20461;-68
2023/10/29 06:33:02;;;;;;;4.10;2.37;;;11.10;99.90;;;;;;5018505;28;20434;-69
2023/10/29 06:35:29;;;;;;;4.53;2.77;;;11.20;99.90;;;;;;5019267;28;20460;-70
2023/10/29 06:38:11;;;;;;;5.03;2.37;;;11.20;99.90;;;;;;5018066;28;20497;-69
2023/10/29 06:40:38;;;;;;;4.53;2.37;;;11.20;99.90;;;;;;5017553;28;20536;-68
2023/10/29 06:43:31;;;;;;;5.20;2.90;;;11.20;99.90;;;;;;5015476;28;21027;-67
2023/10/29 06:45:58;;;;;;;4.87;2.50;;;11.20;99.90;;;;;;5016137;28;20429;-67
2023/10/29 06:48:27;;;;;;;3.57;2.00;;;11.30;99.90;;;;;;5016838;28;20599;-66
2023/10/29 06:50:54;;;;;;;5.67;2.60;;;11.30;99.90;;;;;;5014301;28;20456;-67
2023/10/29 06:53:21;;;;;;;4.23;2.57;;;11.30;99.90;;;;;;4997327;28;20441;-68
2023/10/29 06:55:48;;;;;;;3.20;2.13;;;11.30;99.90;;;;;;5015199;28;20468;-68
2023/10/29 06:58:15;;;;;;;3.93;2.57;;;11.30;99.90;;;;;;5014465;28;20560;-67
2023/10/29 07:00:45;;;;;;;5.40;1.90;;;11.30;99.90;;;;;;4998249;28;20461;-67
2023/10/29 07:03:13;;;;;;;4.17;2.30;;;11.30;99.90;;;;;;5014375;28;20425;-68
2023/10/29 07:06:06;;;;;;;5.53;2.63;;;11.30;99.90;;;;;;5014199;28;20920;-67
2023/10/29 07:08:34;;;;;;;4.13;3.00;;;11.30;99.90;;;;;;5013927;28;20476;-69
2023/10/29 07:11:05;;;;;;;5.00;2.43;;;11.30;99.90;;;;;;5014093;28;20441;-67
2023/10/29 07:13:34;;;;;;;4.93;3.70;;;11.40;99.90;;;;;;4998595;28;20978;-69
2023/10/29 07:16:04;;;;;;;4.07;2.50;;;11.40;99.90;;;;;;5016938;28;20894;-67
2023/10/29 07:18:31;;;;;;;3.37;2.77;;;11.40;99.90;;;;;;5020917;28;20474;-68
2023/10/29 07:21:05;;;;;;;3.50;2.80;;;11.40;99.90;;;;;;5020651;28;20465;-68
2023/10/29 07:23:50;;;;;;;2.90;2.20;;;11.30;99.90;;;;;;5020908;28;20476;-68
2023/10/29 07:26:17;;;;;;;4.20;2.90;;;11.30;99.90;;;;;;5020050;28;20488;-67
2023/10/29 07:28:44;;;;;;;8.53;2.47;;;11.40;99.90;;;;;;5020638;28;20488;-68
2023/10/29 07:31:17;;;;;;;5.60;2.33;;;11.40;99.90;;;;;;5021462;28;20479;-69
2023/10/29 07:33:52;;;;;;;3.70;2.30;;;11.40;99.90;;;;;;5002476;28;20552;-67
2023/10/29 07:36:21;;;;;;;4.27;2.17;;;11.40;99.90;;;;;;5020299;28;20437;-67
2023/10/29 07:38:49;;;;;;;3.53;2.33;;;11.40;99.90;;;;;;5020977;28;20453;-68
2023/10/29 07:41:23;;;;;;;2.80;2.40;;;11.40;99.90;;;;;;5023752;28;20468;-67
2023/10/29 07:43:50;;;;;;;3.17;2.07;;;11.40;99.90;;;;;;5022782;28;20507;-68
2023/10/29 07:46:17;;;;;;;3.20;2.07;;;11.40;99.90;;;;;;5007128;28;20452;-69
2023/10/29 07:48:44;;;;;;;4.90;2.60;;;11.40;99.90;;;;;;5024453;28;20457;-68
2023/10/29 07:51:17;;;;;;;2.97;2.40;;;11.40;99.90;;;;;;5025544;28;20794;-67
2023/10/29 07:54:08;;;;;;;4.73;2.67;;;11.40;99.90;;;;;;5022575;28;20461;-69
2023/10/29 07:56:35;;;;;;;3.40;2.60;;;11.40;99.90;;;;;;5003641;28;20945;-68
2023/10/29 07:59:10;;;;;;;6.13;3.57;;;11.40;99.90;;;;;;5019260;28;20510;-68
2023/10/29 08:01:37;;;;;;;4.80;2.50;;;11.30;99.90;;;;;;5017738;28;20465;-69
2023/10/29 08:04:04;;;;;;;3.40;2.70;;;11.30;99.90;;;;;;5018377;28;20851;-69
2023/10/29 08:06:32;;;;;;;8.50;2.47;;;11.30;99.90;;;;;;5018070;28;20461;-67
2023/10/29 08:09:00;;;;;;;3.90;2.60;;;11.30;99.90;;;;;;5017935;28;20477;-68
2023/10/29 08:11:28;;;;;;;3.33;2.30;;;11.30;99.90;;;;;;4999679;28;20958;-69
2023/10/29 08:13:56;;;;;;;5.10;2.97;;;11.30;99.90;;;;;;5017365;28;20464;-69
2023/10/29 08:16:24;;;;;;;7.27;2.67;;;11.30;99.90;;;;;;5018409;28;20433;-68
2023/10/29 08:18:55;;;;;;;5.83;3.77;;;11.30;99.90;;;;;;5016661;28;20465;-68
2023/10/29 08:21:22;;;;;;;5.33;2.90;;;11.30;99.90;;;;;;5018536;28;20885;-67
2023/10/29 08:23:49;;;;;;;7.90;2.67;;;11.30;99.90;;;;;;5017890;28;20492;-68
2023/10/29 08:26:18;;;;;;;3.90;2.83;;;11.30;99.90;;;;;;5022746;28;20487;-68
2023/10/29 08:28:47;;;;;;;2.33;2.13;;;11.30;99.90;;;;;;5023724;28;20974;-68
2023/10/29 08:31:16;;;;;;;5.23;2.70;;;11.30;99.90;;;;;;5025300;28;20433;-69
2023/10/29 08:33:46;;;;;;;6.63;2.90;;;11.40;99.90;;;;;;5024945;28;20461;-68
2023/10/29 08:36:19;;;;;;;2.87;2.30;;;11.40;99.90;;;;;;5023554;28;20468;-68
2023/10/29 08:38:49;;;;;;;4.03;2.20;;;11.40;99.90;;;;;;5024031;28;20461;-67
2023/10/29 08:41:17;;;;;;;2.93;2.13;;;11.40;99.90;;;;;;5003710;28;20599;-68
2023/10/29 08:43:47;;;;;;;3.17;2.20;;;11.40;99.90;;;;;;5004037;28;20946;-72
2023/10/29 08:46:17;;;;;;;4.57;3.00;;;11.50;99.90;;;;;;5019862;28;20438;-69
2023/10/29 08:48:45;;;;;;;4.27;2.33;;;11.50;99.90;;;;;;5021624;28;20499;-68
2023/10/29 08:51:15;;;;;;;6.23;2.73;;;11.50;99.90;;;;;;5015666;28;20461;-70
2023/10/29 08:53:42;;;;;;;5.30;2.60;;;11.60;99.90;;;;;;5015637;28;20457;-68
2023/10/29 08:56:09;;;;;;;2.80;2.37;;;11.60;99.90;;;;;;5015779;28;20426;-68
2023/10/29 08:58:37;;;;;;;2.80;2.23;;;11.80;99.90;;;;;;5016005;28;20493;-69
2023/10/29 09:01:12;;;;;;;5.00;3.03;;;11.90;99.90;;;;;;5015268;28;20484;-70
2023/10/29 09:03:40;;;;;;;4.90;2.17;;;11.80;99.90;;;;;;5015573;28;20432;-69
2023/10/29 09:06:08;;;;;;;3.90;2.33;;;11.90;99.90;;;;;;4998918;28;20468;-69
2023/10/29 09:08:36;;;;;;;4.57;2.80;;;11.90;99.90;;;;;;5014728;28;20987;-68
2023/10/29 09:11:14;;;;;;;5.10;2.60;;;12.00;99.90;;;;;;5021989;28;20441;-66
2023/10/29 09:13:41;;;;;;;2.80;2.03;;;12.00;99.90;;;;;;5028357;28;20536;-68
2023/10/29 09:16:10;;;;;;;4.40;2.63;;;12.10;99.90;;;;;;5025276;28;20461;-69
2023/10/29 09:18:40;;;;;;;10.37;3.20;;;12.20;99.90;;;;;;5023820;28;20457;-69
2023/10/29 09:21:08;;;;;;;4.70;2.90;;;12.20;99.90;;;;;;5016880;28;20938;-67
2023/10/29 09:23:35;;;;;;;7.23;2.87;;;12.30;99.90;;;;;;5014048;28;20500;-70
2023/10/29 09:26:02;;;;;;;5.57;2.37;;;12.40;99.90;;;;;;5003309;28;20859;-67
2023/10/29 09:28:29;;;;;;;7.70;3.17;;;12.40;99.90;;;;;;5013807;28;20481;-71
2023/10/29 09:30:58;;;;;;;4.20;2.13;;;12.40;99.90;;;;;;5012467;28;20505;-70
2023/10/29 09:33:26;;;;;;;6.33;2.20;;;12.40;99.90;;;;;;5025061;28;20460;-68
2023/10/29 09:35:53;;;;;;;5.50;2.67;;;12.50;99.90;;;;;;5032597;28;20838;-69
2023/10/29 09:38:21;;;;;;;5.50;2.03;;;12.50;99.90;;;;;;5036554;28;20475;-69
2023/10/29 09:43:40;;;;;;;4.07;2.40;;;12.50;99.90;;;;;;5036138;28;20491;-70
2023/10/29 09:46:08;;;;;;;3.97;2.30;;;12.60;99.90;;;;;;5035916;28;20462;-69
2023/10/29 09:48:38;;;;;;;3.00;2.00;;;12.60;99.90;;;;;;5040657;28;20475;-69
2023/10/29 09:51:06;;;;;;;3.80;2.33;;;12.60;99.90;;;;;;5021331;28;20437;-68
2023/10/29 09:53:37;;;;;;;3.87;2.70;;;12.60;99.90;;;;;;5022212;28;20429;-68
2023/10/29 09:56:08;;;;;;;5.00;3.40;;;12.60;99.90;;;;;;5023772;28;20925;-68
2023/10/29 09:58:38;;;;;;;2.97;2.20;;;12.60;99.90;;;;;;5028442;28;20820;-68
2023/10/29 10:01:05;;;;;;;3.33;1.90;;;12.60;99.90;;;;;;5029156;28;20472;-67
2023/10/29 10:03:32;;;;;;;2.67;2.10;;;12.60;99.90;;;;;;5022342;28;20508;-67
2023/10/29 10:06:03;;;;;;;1.83;1.67;;;12.60;99.90;;;;;;5017684;28;20433;-67
2023/10/29 10:08:33;;;;;;;2.70;1.67;;;12.60;99.90;;;;;;5016222;28;20496;-67
2023/10/29 10:11:01;;;;;;;3.33;2.07;;;12.60;99.90;;;;;;5016336;28;20498;-66
2023/10/29 10:13:38;;;;;;;7.93;2.47;;;12.70;99.90;;;;;;5018786;28;20962;-66
2023/10/29 10:16:10;;;;;;;4.27;2.30;;;12.70;99.90;;;;;;5011253;28;20853;-66
2023/10/29 10:18:52;;;;;;;5.17;2.50;;;12.70;99.90;;;;;;5015779;28;20489;-67
2023/10/29 10:21:23;;;;;;;2.27;1.77;;;12.80;99.90;;;;;;5020087;28;20519;-67
2023/10/29 10:23:52;;;;;;;5.60;2.43;;;12.70;99.90;;;;;;5025242;28;20449;-67
2023/10/29 10:26:31;;;;;;;2.67;2.27;;;12.80;99.90;;;;;;5026333;28;20445;-68
2023/10/29 10:29:00;;;;;;;3.27;1.87;;;12.80;99.90;;;;;;5025992;28;20533;-70
2023/10/29 10:31:31;;;;;;;2.67;2.17;;;12.90;99.90;;;;;;5008451;28;20448;-66
2023/10/29 10:34:13;;;;;;;3.10;2.23;;;12.90;99.90;;;;;;5026167;28;20444;-67
2023/10/29 10:36:44;;;;;;;4.00;1.70;;;12.90;99.90;;;;;;5021580;28;20461;-67
2023/10/29 10:39:12;;;;;;;1.93;1.60;;;13.00;99.90;;;;;;5009464;28;20456;-69
2023/10/29 10:41:43;;;;;;;1.77;1.47;;;13.00;99.90;;;;;;5021006;28;20461;-68
2023/10/29 10:44:12;;;;;;;5.97;2.00;;;13.10;99.90;;;;;;5024071;28;20436;-68
2023/10/29 10:46:43;;;;;;;2.20;2.00;;;13.10;99.90;;;;;;5006933;28;20501;-67
2023/10/29 10:49:12;;;;;;;3.23;2.20;;;13.10;99.90;;;;;;5009439;28;20483;-69
2023/10/29 10:51:42;;;;;;;5.33;1.80;;;13.20;99.90;;;;;;5007823;28;20467;-68
2023/10/29 10:54:11;;;;;;;1.90;1.40;;;13.20;99.90;;;;;;5025902;28;20491;-67
2023/10/29 10:56:39;;;;;;;1.57;1.37;;;13.30;99.90;;;;;;5026047;28;20469;-67
2023/10/29 10:59:07;;;;;;;1.70;1.50;;;13.30;99.90;;;;;;5024411;28;20496;-67
2023/10/29 11:01:35;;;;;;;5.13;1.90;;;13.40;99.90;;;;;;5021912;28;20485;-68
2023/10/29 11:04:04;;;;;;;3.30;1.80;;;13.50;99.90;;;;;;5022484;28;20445;-68
2023/10/29 11:06:37;;;;;;;3.37;1.90;;;13.60;99.90;;;;;;5021800;28;20534;-67
2023/10/29 11:09:12;;;;;;;2.30;1.90;;;13.60;99.90;;;;;;5020504;28;20917;-68
2023/10/29 11:11:48;;;;;;;2.90;1.50;;;13.70;99.90;;;;;;5022519;28;20497;-68
2023/10/29 11:14:16;;;;;;;2.60;1.63;;;13.70;99.90;;;;;;5006408;28;20465;-69
2023/10/29 11:16:48;;;;;;;10.47;2.27;;;13.80;99.90;;;;;;5026441;28;20444;-68
2023/10/29 11:19:39;;;;;;;5.60;1.67;;;13.90;99.90;;;;;;5025320;28;20493;-69
2023/10/29 11:22:21;;;;;;;2.27;1.90;;;14.00;99.90;;;;;;5023729;28;20505;-68
2023/10/29 11:25:30;;;;;;;2.60;1.47;;;14.10;99.90;;;;;;5009945;28;20499;-68
2023/10/29 11:27:57;;;;;;;1.80;1.60;;;14.10;99.90;;;;;;4947673;29;20495;-68
2023/10/29 11:30:28;;;;;;;1.83;1.57;;;14.10;99.90;;;;;;4947745;29;20449;-68
2023/10/29 11:33:18;;;;;;;2.30;1.63;;;14.10;99.90;;;;;;4989552;28;20445;-68
2023/10/29 11:35:46;;;;;;;3.43;1.53;;;14.10;99.90;;;;;;5027300;28;20460;-68
2023/10/29 11:38:30;;;;;;;1.30;1.10;;;14.20;99.90;;;;;;5019075;28;20457;-68
2023/10/29 11:41:00;;;;;;;3.10;1.27;;;14.30;99.90;;;;;;5018716;28;21000;-68
2023/10/29 11:43:28;;;;;;;4.07;1.87;;;14.40;99.90;;;;;;5024972;28;20426;-67
2023/10/29 11:46:04;;;;;;;1.87;1.43;;;14.40;99.90;;;;;;5025478;28;20453;-68
2023/10/29 11:48:34;;;;;;;2.47;1.70;;;14.50;99.90;;;;;;5026480;28;20465;-67
2023/10/29 11:51:23;;;;;;;5.63;1.67;;;14.50;99.90;;;;;;5022385;28;20453;-68
2023/10/29 11:53:50;;;;;;;1.67;1.27;;;14.60;99.90;;;;;;5021963;28;20811;-67
2023/10/29 11:56:22;;;;;;;1.73;1.60;;;14.60;99.90;;;;;;5023671;28;20481;-67
2023/10/29 11:59:05;;;;;;;2.03;1.40;;;14.70;99.90;;;;;;5010643;28;20469;-68
2023/10/29 12:01:33;;;;;;;3.53;2.00;;;14.70;99.90;;;;;;5025082;28;20870;-68
2023/10/29 12:04:01;;;;;;;7.13;2.27;;;14.80;99.90;;;;;;5023729;28;20457;-67
2023/10/29 12:06:42;;;;;;;2.87;2.00;;;14.80;99.90;;;;;;5026202;28;20464;-66
2023/10/29 12:09:17;;;;;;;2.10;1.40;;;14.90;99.90;;;;;;5018526;28;20492;-66
2023/10/29 12:11:48;;;;;;;2.30;1.70;;;14.90;99.90;;;;;;5018200;28;20488;-68
2023/10/29 12:14:17;;;;;;;11.70;3.67;;;15.20;99.90;;;;;;5015554;28;20468;-69
2023/10/29 12:16:44;;;;;;;2.60;1.60;;;15.40;99.90;;;;;;4995069;28;20532;-68
2023/10/29 12:19:13;;;;;;;4.77;1.73;;;15.40;99.90;;;;;;5010643;28;20574;-66
2023/10/29 12:21:52;;;;;;;3.13;1.90;;;15.40;99.90;;;;;;5014551;28;20524;-67
2023/10/29 12:24:19;;;;;;;1.73;1.30;;;15.50;99.90;;;;;;4993236;28;20429;-67
2023/10/29 12:26:48;;;;;;;2.53;1.60;;;15.50;99.90;;;;;;5014086;28;20469;-67
2023/10/29 12:29:16;;;;;;;3.10;1.40;;;15.60;99.90;;;;;;5012454;28;20828;-69
2023/10/29 12:31:48;;;;;;;2.13;1.20;;;15.60;99.90;;;;;;5014239;28;20425;-69
2023/10/29 12:34:17;;;;;;;3.63;2.17;;;15.60;99.90;;;;;;5011786;28;20560;-69
2023/10/29 12:36:50;;;;;;;4.90;3.03;;;15.60;99.90;;;;;;5014542;28;20441;-68
2023/10/29 12:39:17;;;;;;;5.17;3.63;;;15.50;99.90;;;;;;5011882;28;20555;-68
2023/10/29 12:41:53;;;;;;;4.90;1.60;;;15.50;99.90;;;;;;5009075;28;20485;-68
2023/10/29 12:44:22;;;;;;;2.50;1.67;;;15.50;99.90;;;;;;5011448;28;20476;-68
2023/10/29 12:46:50;;;;;;;1.90;1.20;;;15.50;99.90;;;;;;5014878;28;20437;-70
2023/10/29 12:49:25;;;;;;;2.07;1.67;;;15.50;99.90;;;;;;5015539;28;20508;-68
2023/10/29 12:51:54;;;;;;;2.73;1.23;;;15.50;99.90;;;;;;5012787;28;20477;-69
2023/10/29 12:54:23;;;;;;;3.80;1.30;;;15.60;99.90;;;;;;5013834;28;20445;-68
2023/10/29 12:56:59;;;;;;;1.73;1.37;;;15.60;99.90;;;;;;5010934;28;20802;-68
2023/10/29 12:59:27;;;;;;;1.47;1.30;;;15.60;99.90;;;;;;5011970;28;20899;-67
2023/10/29 13:01:55;;;;;;;2.10;1.37;;;15.60;99.90;;;;;;5012880;28;20596;-69
2023/10/29 13:04:23;;;;;;;1.90;1.50;;;15.60;99.90;;;;;;5009294;28;20444;-69
2023/10/29 13:06:53;;;;;;;2.30;1.43;;;15.60;99.90;;;;;;5014095;28;20430;-68
2023/10/29 13:09:21;;;;;;;1.63;1.40;;;15.60;99.90;;;;;;4996751;28;20969;-67